sensor_id;sensor_type;location;lat;lon;timestamp;pressure;altitude;pressure_sealevel;temperature;humidity
26112;BME280;13829;48.990;8.346;2023-04-29T00:01:30;100121.97;;;13.68;100.00
26112;BME280;13829;48.990;8.346;2023-04-29T00:03:57;100129.03;;;13.67;100.00
26112;BME280;13829;48.990;8.346;2023-04-29T00:06:24;100129.97;;;13.65;100.00
26112;BME280;13829;48.990;8.346;2023-04-29T00:08:51;100122.88;;;13.65;100.00
26112;BME280;13829;48.990;8.346;2023-04-29T00:11:18;100123.81;;;13.63;100.00
26112;BME280;13829;48.990;8.346;2023-04-29T00:13:45;100128.25;;;13.61;100.00
26112;BME280;13829;48.990;8.346;2023-04-29T00:16:13;100122.06;;;13.60;100.00
26112;BME280;13829;48.990;8.346;2023-04-29T00:18:40;100121.22;;;13.60;100.00
26112;BME280;13829;48.990;8.346;2023-04-29T00:21:07;100127.44;;;13.56;100.00
26112;BME280;13829;48.990;8.346;2023-04-29T00:23:34;100129.22;;;13.53;100.00
26112;BME280;13829;48.990;8.346;2023-04-29T00:26:01;100121.34;;;13.50;100.00
26112;BME280;13829;48.990;8.346;2023-04-29T00:28:28;100124.84;;;13.49;100.00
26112;BME280;13829;48.990;8.346;2023-04-29T00:30:55;100121.34;;;13.47;100.00
26112;BME280;13829;48.990;8.346;2023-04-29T00:33:24;100126.69;;;13.44;100.00
26112;BME280;13829;48.990;8.346;2023-04-29T00:35:51;100127.59;;;13.42;100.00
26112;BME280;13829;48.990;8.346;2023-04-29T00:38:18;100122.31;;;13.42;100.00
26112;BME280;13829;48.990;8.346;2023-04-29T00:40:46;100131.97;;;13.41;100.00
26112;BME280;13829;48.990;8.346;2023-04-29T00:43:13;100131.97;;;13.41;100.00
26112;BME280;13829;48.990;8.346;2023-04-29T00:45:40;100125.75;;;13.48;100.00
26112;BME280;13829;48.990;8.346;2023-04-29T00:48:07;100132.78;;;13.49;100.00
26112;BME280;13829;48.990;8.346;2023-04-29T00:50:36;100130.16;;;13.46;100.00
26112;BME280;13829;48.990;8.346;2023-04-29T00:53:03;100137.25;;;13.44;100.00
26112;BME280;13829;48.990;8.346;2023-04-29T00:55:32;100136.34;;;13.44;100.00
26112;BME280;13829;48.990;8.346;2023-04-29T00:57:59;100132.00;;;13.40;100.00
26112;BME280;13829;48.990;8.346;2023-04-29T01:00:27;100138.16;;;13.40;100.00
26112;BME280;13829;48.990;8.346;2023-04-29T01:02:56;100131.09;;;13.45;100.00
26112;BME280;13829;48.990;8.346;2023-04-29T01:05:24;100138.09;;;13.45;100.00
26112;BME280;13829;48.990;8.346;2023-04-29T01:08:11;100134.59;;;13.44;100.00
26112;BME280;13829;48.990;8.346;2023-04-29T01:10:48;100134.44;;;13.58;100.00
26112;BME280;13829;48.990;8.346;2023-04-29T01:13:33;100135.38;;;13.56;100.00
26112;BME280;13829;48.990;8.346;2023-04-29T01:16:08;100146.84;;;13.50;100.00
26112;BME280;13829;48.990;8.346;2023-04-29T01:18:42;100147.88;;;13.38;100.00
26112;BME280;13829;48.990;8.346;2023-04-29T01:21:11;100147.81;;;13.44;100.00
26112;BME280;13829;48.990;8.346;2023-04-29T01:23:39;100140.84;;;13.34;100.00
26112;BME280;13829;48.990;8.346;2023-04-29T01:26:06;100148.78;;;13.32;100.00
26112;BME280;13829;48.990;8.346;2023-04-29T01:28:45;100144.44;;;13.27;100.00
26112;BME280;13829;48.990;8.346;2023-04-29T01:31:18;100147.97;;;13.26;100.00
26112;BME280;13829;48.990;8.346;2023-04-29T01:34:06;100144.53;;;13.17;100.00
26112;BME280;13829;48.990;8.346;2023-04-29T01:36:46;100148.06;;;13.16;100.00
26112;BME280;13829;48.990;8.346;2023-04-29T01:39:26;100140.16;;;13.13;100.00
26112;BME280;13829;48.990;8.346;2023-04-29T01:42:03;100146.31;;;13.12;100.00
26112;BME280;13829;48.990;8.346;2023-04-29T01:44:35;100142.81;;;13.13;100.00
26112;BME280;13829;48.990;8.346;2023-04-29T01:47:05;100150.72;;;13.15;100.00
26112;BME280;13829;48.990;8.346;2023-04-29T01:49:35;100146.31;;;13.12;100.00
26112;BME280;13829;48.990;8.346;2023-04-29T01:52:02;100143.72;;;13.11;100.00
26112;BME280;13829;48.990;8.346;2023-04-29T01:54:31;100147.19;;;13.14;100.00
26112;BME280;13829;48.990;8.346;2023-04-29T01:57:01;100146.25;;;13.21;100.00
26112;BME280;13829;48.990;8.346;2023-04-29T01:59:27;100145.47;;;13.12;100.00
26112;BME280;13829;48.990;8.346;2023-04-29T02:01:54;100149.00;;;13.09;100.00
26112;BME280;13829;48.990;8.346;2023-04-29T02:04:23;100149.88;;;13.11;100.00
26112;BME280;13829;48.990;8.346;2023-04-29T02:06:50;100149.91;;;13.07;100.00
26112;BME280;13829;48.990;8.346;2023-04-29T02:09:18;100148.16;;;13.09;100.00
26112;BME280;13829;48.990;8.346;2023-04-29T02:11:46;100146.22;;;13.25;100.00
26112;BME280;13829;48.990;8.346;2023-04-29T02:14:13;100156.00;;;13.13;100.00
26112;BME280;13829;48.990;8.346;2023-04-29T02:16:43;100149.94;;;13.05;100.00
26112;BME280;13829;48.990;8.346;2023-04-29T02:19:11;100154.34;;;13.06;100.00
26112;BME280;13829;48.990;8.346;2023-04-29T02:21:37;100158.78;;;13.01;100.00
26112;BME280;13829;48.990;8.346;2023-04-29T02:24:05;100153.50;;;12.98;100.00
26112;BME280;13829;48.990;8.346;2023-04-29T02:26:32;100158.78;;;13.01;100.00
26112;BME280;13829;48.990;8.346;2023-04-29T02:29:01;100164.09;;;12.96;100.00
26112;BME280;13829;48.990;8.346;2023-04-29T02:31:28;100167.63;;;12.94;100.00
26112;BME280;13829;48.990;8.346;2023-04-29T02:33:55;100162.38;;;12.91;100.00
26112;BME280;13829;48.990;8.346;2023-04-29T02:36:22;100172.97;;;12.84;100.00
26112;BME280;13829;48.990;8.346;2023-04-29T02:38:50;100178.28;;;12.81;100.00
26112;BME280;13829;48.990;8.346;2023-04-29T02:41:18;100183.59;;;12.80;100.00
26112;BME280;13829;48.990;8.346;2023-04-29T02:43:45;100187.97;;;12.78;100.00
26112;BME280;13829;48.990;8.346;2023-04-29T02:46:15;100182.75;;;12.70;100.00
26112;BME280;13829;48.990;8.346;2023-04-29T02:48:43;100183.69;;;12.66;100.00
26112;BME280;13829;48.990;8.346;2023-04-29T02:51:10;100185.44;;;12.64;100.00
26112;BME280;13829;48.990;8.346;2023-04-29T02:53:37;100181.97;;;12.62;100.00
26112;BME280;13829;48.990;8.346;2023-04-29T02:56:04;100184.63;;;12.57;100.00
26112;BME280;13829;48.990;8.346;2023-04-29T02:58:31;100189.03;;;12.53;100.00
26112;BME280;13829;48.990;8.346;2023-04-29T03:00:58;100189.06;;;12.49;100.00
26112;BME280;13829;48.990;8.346;2023-04-29T03:03:27;100192.59;;;12.46;100.00
26112;BME280;13829;48.990;8.346;2023-04-29T03:05:53;100193.50;;;12.42;100.00
26112;BME280;13829;48.990;8.346;2023-04-29T03:08:20;100197.91;;;12.40;100.00
26112;BME280;13829;48.990;8.346;2023-04-29T03:10:47;100197.06;;;12.36;100.00
26112;BME280;13829;48.990;8.346;2023-04-29T03:13:14;100195.31;;;12.32;100.00
26112;BME280;13829;48.990;8.346;2023-04-29T03:15:41;100195.34;;;12.24;100.00
26112;BME280;13829;48.990;8.346;2023-04-29T03:18:08;100192.78;;;12.15;100.00
26112;BME280;13829;48.990;8.346;2023-04-29T03:20:37;100189.31;;;12.09;100.00
26112;BME280;13829;48.990;8.346;2023-04-29T03:23:04;100196.38;;;11.99;100.00
26112;BME280;13829;48.990;8.346;2023-04-29T03:25:31;100195.47;;;11.95;100.00
26112;BME280;13829;48.990;8.346;2023-04-29T03:27:58;100191.97;;;11.90;100.00
26112;BME280;13829;48.990;8.346;2023-04-29T03:30:25;100191.13;;;11.83;100.00
26112;BME280;13829;48.990;8.346;2023-04-29T03:32:52;100199.91;;;11.81;100.00
26112;BME280;13829;48.990;8.346;2023-04-29T03:35:19;100194.63;;;11.85;100.00
26112;BME280;13829;48.990;8.346;2023-04-29T03:37:47;100186.69;;;11.93;100.00
26112;BME280;13829;48.990;8.346;2023-04-29T03:40:14;100199.91;;;11.84;100.00
26112;BME280;13829;48.990;8.346;2023-04-29T03:42:41;100196.44;;;11.75;100.00
26112;BME280;13829;48.990;8.346;2023-04-29T03:45:09;100198.19;;;11.66;100.00
26112;BME280;13829;48.990;8.346;2023-04-29T03:47:37;100205.22;;;11.67;100.00
26112;BME280;13829;48.990;8.346;2023-04-29T03:50:06;100211.38;;;11.72;100.00
26112;BME280;13829;48.990;8.346;2023-04-29T03:52:34;100207.84;;;11.76;100.00
26112;BME280;13829;48.990;8.346;2023-04-29T03:55:04;100213.94;;;11.87;100.00
26112;BME280;13829;48.990;8.346;2023-04-29T03:57:31;100220.97;;;11.79;100.00
26112;BME280;13829;48.990;8.346;2023-04-29T03:59:58;100213.06;;;11.84;100.00
26112;BME280;13829;48.990;8.346;2023-04-29T04:02:25;100220.13;;;11.79;100.00
26112;BME280;13829;48.990;8.346;2023-04-29T04:04:52;100221.00;;;11.76;100.00
26112;BME280;13829;48.990;8.346;2023-04-29T04:07:20;100228.91;;;11.74;100.00
26112;BME280;13829;48.990;8.346;2023-04-29T04:09:47;100224.53;;;11.69;100.00
26112;BME280;13829;48.990;8.346;2023-04-29T04:12:15;100228.91;;;11.74;100.00
26112;BME280;13829;48.990;8.346;2023-04-29T04:14:42;100234.19;;;11.73;100.00
26112;BME280;13829;48.990;8.346;2023-04-29T04:17:09;100226.28;;;11.70;100.00
26112;BME280;13829;48.990;8.346;2023-04-29T04:19:36;100237.69;;;11.63;100.00
26112;BME280;13829;48.990;8.346;2023-04-29T04:22:03;100240.31;;;11.86;100.00
26112;BME280;13829;48.990;8.346;2023-04-29T04:24:30;100245.56;;;11.89;100.00
26112;BME280;13829;48.990;8.346;2023-04-29T04:26:57;100240.28;;;11.84;100.00
26112;BME280;13829;48.990;8.346;2023-04-29T04:29:25;100245.56;;;11.83;100.00
26112;BME280;13829;48.990;8.346;2023-04-29T04:31:52;100247.31;;;11.79;100.00
26112;BME280;13829;48.990;8.346;2023-04-29T04:34:19;100257.00;;;11.79;100.00
26112;BME280;13829;48.990;8.346;2023-04-29T04:36:46;100258.72;;;11.89;100.00
26112;BME280;13829;48.990;8.346;2023-04-29T04:39:13;100271.03;;;11.85;100.00
26112;BME280;13829;48.990;8.346;2023-04-29T04:41:40;100267.53;;;11.89;100.00
26112;BME280;13829;48.990;8.346;2023-04-29T04:44:06;100272.75;;;11.94;100.00
26112;BME280;13829;48.990;8.346;2023-04-29T04:46:35;100283.34;;;12.03;100.00
26112;BME280;13829;48.990;8.346;2023-04-29T04:49:02;100284.16;;;12.13;100.00
26112;BME280;13829;48.990;8.346;2023-04-29T04:51:29;100287.69;;;12.09;100.00
26112;BME280;13829;48.990;8.346;2023-04-29T04:53:56;100298.28;;;11.87;100.00
26112;BME280;13829;48.990;8.346;2023-04-29T04:56:23;100300.91;;;11.97;100.00
26112;BME280;13829;48.990;8.346;2023-04-29T04:58:50;100307.03;;;11.96;100.00
26112;BME280;13829;48.990;8.346;2023-04-29T05:01:16;100300.91;;;12.00;100.00
26112;BME280;13829;48.990;8.346;2023-04-29T05:03:45;100312.34;;;11.97;100.00
26112;BME280;13829;48.990;8.346;2023-04-29T05:06:12;100310.56;;;12.04;100.00
26112;BME280;13829;48.990;8.346;2023-04-29T05:08:39;100302.66;;;12.09;100.00
26112;BME280;13829;48.990;8.346;2023-04-29T05:11:06;100307.91;;;12.10;100.00
26112;BME280;13829;48.990;8.346;2023-04-29T05:13:41;100303.50;;;12.15;100.00
26112;BME280;13829;48.990;8.346;2023-04-29T05:16:07;100306.13;;;12.21;100.00
26112;BME280;13829;48.990;8.346;2023-04-29T05:18:34;100314.84;;;12.36;100.00
26112;BME280;13829;48.990;8.346;2023-04-29T05:21:03;100321.00;;;12.38;100.00
26112;BME280;13829;48.990;8.346;2023-04-29T05:23:30;100315.69;;;12.41;100.00
26112;BME280;13829;48.990;8.346;2023-04-29T05:25:57;100330.63;;;12.44;100.00
26112;BME280;13829;48.990;8.346;2023-04-29T05:28:24;100323.53;;;12.60;100.00
26112;BME280;13829;48.990;8.346;2023-04-29T05:30:51;100322.63;;;12.73;100.00
26112;BME280;13829;48.990;8.346;2023-04-29T05:33:18;100321.75;;;12.65;100.00
26112;BME280;13829;48.990;8.346;2023-04-29T05:35:45;100327.97;;;12.51;100.00
26112;BME280;13829;48.990;8.346;2023-04-29T05:38:13;100328.84;;;12.49;100.00
26112;BME280;13829;48.990;8.346;2023-04-29T05:40:40;100329.72;;;12.57;100.00
26112;BME280;13829;48.990;8.346;2023-04-29T05:43:07;100330.59;;;12.57;100.00
26112;BME280;13829;48.990;8.346;2023-04-29T05:45:34;100333.25;;;12.54;100.00
26112;BME280;13829;48.990;8.346;2023-04-29T05:48:01;100341.09;;;12.70;100.00
26112;BME280;13829;48.990;8.346;2023-04-29T05:50:28;100341.94;;;12.78;100.00
26112;BME280;13829;48.990;8.346;2023-04-29T05:52:55;100347.13;;;12.91;100.00
26112;BME280;13829;48.990;8.346;2023-04-29T05:55:23;100350.53;;;13.11;100.00
26112;BME280;13829;48.990;8.346;2023-04-29T05:57:50;100352.25;;;13.18;100.00
26112;BME280;13829;48.990;8.346;2023-04-29T06:00:18;100352.06;;;13.46;100.00
26112;BME280;13829;48.990;8.346;2023-04-29T06:02:45;100357.06;;;13.82;100.00
26112;BME280;13829;48.990;8.346;2023-04-29T06:05:12;100355.84;;;14.17;100.00
26112;BME280;13829;48.990;8.346;2023-04-29T06:07:40;100363.50;;;14.43;100.00
26112;BME280;13829;48.990;8.346;2023-04-29T06:10:08;100361.53;;;14.61;100.00
26112;BME280;13829;48.990;8.346;2023-04-29T06:12:36;100360.41;;;14.80;100.00
26112;BME280;13829;48.990;8.346;2023-04-29T06:15:04;100374.56;;;14.81;100.00
26112;BME280;13829;48.990;8.346;2023-04-29T06:17:31;100361.16;;;14.92;100.00
26112;BME280;13829;48.990;8.346;2023-04-29T06:19:59;100370.00;;;14.92;100.00
26112;BME280;13829;48.990;8.346;2023-04-29T06:22:26;100368.06;;;15.02;100.00
26112;BME280;13829;48.990;8.346;2023-04-29T06:24:53;100372.44;;;15.05;100.00
26112;BME280;13829;48.990;8.346;2023-04-29T06:27:20;100374.81;;;15.25;100.00
26112;BME280;13829;48.990;8.346;2023-04-29T06:29:48;100378.47;;;15.18;100.00
26112;BME280;13829;48.990;8.346;2023-04-29T06:32:15;100376.75;;;15.15;100.00
26112;BME280;13829;48.990;8.346;2023-04-29T06:34:42;100385.59;;;15.11;100.00
26112;BME280;13829;48.990;8.346;2023-04-29T06:37:10;100391.81;;;15.08;100.00
26112;BME280;13829;48.990;8.346;2023-04-29T06:39:37;100399.69;;;15.14;100.00
26112;BME280;13829;48.990;8.346;2023-04-29T06:42:04;100399.75;;;15.11;100.00
26112;BME280;13829;48.990;8.346;2023-04-29T06:44:31;100398.84;;;15.11;100.00
26112;BME280;13829;48.990;8.346;2023-04-29T06:46:59;100399.75;;;15.10;100.00
26112;BME280;13829;48.990;8.346;2023-04-29T06:49:26;100404.97;;;15.18;100.00
26112;BME280;13829;48.990;8.346;2023-04-29T06:51:53;100407.69;;;15.10;100.00
26112;BME280;13829;48.990;8.346;2023-04-29T06:54:20;100415.75;;;15.02;100.00
26112;BME280;13829;48.990;8.346;2023-04-29T06:56:47;100404.19;;;15.09;100.00
26112;BME280;13829;48.990;8.346;2023-04-29T06:59:14;100407.63;;;15.14;100.00
26112;BME280;13829;48.990;8.346;2023-04-29T07:01:41;100413.53;;;15.37;100.00
26112;BME280;13829;48.990;8.346;2023-04-29T07:04:09;100411.38;;;15.62;100.00
26112;BME280;13829;48.990;8.346;2023-04-29T07:06:36;100417.56;;;16.16;100.00
26112;BME280;13829;48.990;8.346;2023-04-29T07:09:03;100406.84;;;17.88;100.00
26112;BME280;13829;48.990;8.346;2023-04-29T07:11:30;100417.75;;;20.21;89.59
26112;BME280;13829;48.990;8.346;2023-04-29T07:13:57;100415.53;;;21.97;71.71
26112;BME280;13829;48.990;8.346;2023-04-29T07:16:24;100415.97;;;23.66;60.77
26112;BME280;13829;48.990;8.346;2023-04-29T07:18:51;100404.97;;;23.53;60.37
26112;BME280;13829;48.990;8.346;2023-04-29T07:21:20;100421.25;;;22.72;58.80
26112;BME280;13829;48.990;8.346;2023-04-29T07:23:47;100417.72;;;21.43;62.43
26112;BME280;13829;48.990;8.346;2023-04-29T07:26:16;100434.28;;;20.32;68.49
26112;BME280;13829;48.990;8.346;2023-04-29T07:28:44;100435.06;;;19.81;72.10
26112;BME280;13829;48.990;8.346;2023-04-29T07:31:11;100437.13;;;20.01;72.63
26112;BME280;13829;48.990;8.346;2023-04-29T07:33:39;100438.34;;;20.43;68.36
26112;BME280;13829;48.990;8.346;2023-04-29T07:36:06;100436.78;;;19.85;70.96
26112;BME280;13829;48.990;8.346;2023-04-29T07:38:35;100441.53;;;19.17;77.03
26112;BME280;13829;48.990;8.346;2023-04-29T07:41:02;100447.88;;;18.80;77.60
26112;BME280;13829;48.990;8.346;2023-04-29T07:43:29;100455.16;;;18.41;79.05
26112;BME280;13829;48.990;8.346;2023-04-29T07:45:56;100457.84;;;19.06;80.06
26112;BME280;13829;48.990;8.346;2023-04-29T07:48:23;100456.38;;;18.96;76.56
26112;BME280;13829;48.990;8.346;2023-04-29T07:50:50;100463.50;;;18.62;77.81
26112;BME280;13829;48.990;8.346;2023-04-29T07:53:17;100456.91;;;18.42;74.88
26112;BME280;13829;48.990;8.346;2023-04-29T07:55:45;100458.38;;;18.20;78.80
26112;BME280;13829;48.990;8.346;2023-04-29T07:58:12;100460.44;;;18.08;74.95
26112;BME280;13829;48.990;8.346;2023-04-29T08:00:39;100458.69;;;18.07;75.50
26112;BME280;13829;48.990;8.346;2023-04-29T08:03:06;100464.69;;;18.50;78.64
26112;BME280;13829;48.990;8.346;2023-04-29T08:05:33;100465.31;;;18.60;81.25
26112;BME280;13829;48.990;8.346;2023-04-29T08:08:00;100461.59;;;18.66;74.30
26112;BME280;13829;48.990;8.346;2023-04-29T08:10:27;100463.03;;;19.11;73.27
26112;BME280;13829;48.990;8.346;2023-04-29T08:12:56;100451.47;;;19.68;73.52
26112;BME280;13829;48.990;8.346;2023-04-29T08:15:23;100461.72;;;19.84;70.56
26112;BME280;13829;48.990;8.346;2023-04-29T08:17:50;100463.03;;;19.97;67.31
26112;BME280;13829;48.990;8.346;2023-04-29T08:20:17;100460.56;;;20.45;67.12
26112;BME280;13829;48.990;8.346;2023-04-29T08:22:44;100464.97;;;20.46;65.08
26112;BME280;13829;48.990;8.346;2023-04-29T08:25:11;100458.59;;;20.50;64.70
26112;BME280;13829;48.990;8.346;2023-04-29T08:27:37;100468.56;;;20.45;63.73
26112;BME280;13829;48.990;8.346;2023-04-29T08:30:08;100458.13;;;20.12;63.31
26112;BME280;13829;48.990;8.346;2023-04-29T08:32:35;100461.53;;;19.88;65.70
26112;BME280;13829;48.990;8.346;2023-04-29T08:35:02;100459.25;;;19.48;70.99
26112;BME280;13829;48.990;8.346;2023-04-29T08:37:29;100467.34;;;19.15;68.93
26112;BME280;13829;48.990;8.346;2023-04-29T08:39:56;100462.03;;;19.15;68.97
26112;BME280;13829;48.990;8.346;2023-04-29T08:42:33;100470.88;;;19.17;73.64
26112;BME280;13829;48.990;8.346;2023-04-29T08:45:02;100478.28;;;19.35;74.90
26112;BME280;13829;48.990;8.346;2023-04-29T08:47:32;100466.22;;;19.52;73.40
26112;BME280;13829;48.990;8.346;2023-04-29T08:50:03;100463.44;;;19.56;68.79
26112;BME280;13829;48.990;8.346;2023-04-29T08:52:30;100477.56;;;19.30;66.72
26112;BME280;13829;48.990;8.346;2023-04-29T08:54:58;100470.88;;;19.17;69.25
26112;BME280;13829;48.990;8.346;2023-04-29T08:57:29;100479.59;;;18.90;68.02
26112;BME280;13829;48.990;8.346;2023-04-29T08:59:58;100479.38;;;18.65;69.66
26112;BME280;13829;48.990;8.346;2023-04-29T09:02:26;100480.75;;;18.13;67.30
26112;BME280;13829;48.990;8.346;2023-04-29T09:05:03;100481.63;;;17.75;73.31
26112;BME280;13829;48.990;8.346;2023-04-29T09:07:32;100482.19;;;17.51;74.98
26112;BME280;13829;48.990;8.346;2023-04-29T09:10:03;100489.41;;;17.46;78.31
26112;BME280;13829;48.990;8.346;2023-04-29T09:12:30;100487.44;;;17.54;79.43
26112;BME280;13829;48.990;8.346;2023-04-29T09:14:57;100483.81;;;17.56;78.34
26112;BME280;13829;48.990;8.346;2023-04-29T09:17:39;100490.63;;;17.68;79.18
26112;BME280;13829;48.990;8.346;2023-04-29T09:20:26;100488.09;;;17.64;78.85
26112;BME280;13829;48.990;8.346;2023-04-29T09:22:56;100495.72;;;17.79;80.65
26112;BME280;13829;48.990;8.346;2023-04-29T09:25:23;100492.22;;;17.77;79.49
26112;BME280;13829;48.990;8.346;2023-04-29T09:27:52;100500.31;;;17.72;79.37
26112;BME280;13829;48.990;8.346;2023-04-29T09:30:19;100505.06;;;17.58;78.64
26112;BME280;13829;48.990;8.346;2023-04-29T09:33:04;100497.16;;;17.55;79.82
26112;BME280;13829;48.990;8.346;2023-04-29T09:35:33;100501.34;;;17.65;81.63
26112;BME280;13829;48.990;8.346;2023-04-29T09:38:11;100494.22;;;17.67;82.18
26112;BME280;13829;48.990;8.346;2023-04-29T09:40:40;100498.47;;;17.76;80.65
26112;BME280;13829;48.990;8.346;2023-04-29T09:43:13;100499.91;;;17.89;76.84
26112;BME280;13829;48.990;8.346;2023-04-29T09:45:42;100495.38;;;17.95;77.85
26112;BME280;13829;48.990;8.346;2023-04-29T09:48:11;100496.91;;;18.05;79.14
26112;BME280;13829;48.990;8.346;2023-04-29T09:50:42;100494.94;;;18.13;81.16
26112;BME280;13829;48.990;8.346;2023-04-29T09:53:10;100498.41;;;18.17;75.84
26112;BME280;13829;48.990;8.346;2023-04-29T09:55:57;100493.59;;;18.31;75.49
26112;BME280;13829;48.990;8.346;2023-04-29T09:58:28;100497.22;;;18.29;74.81
26112;BME280;13829;48.990;8.346;2023-04-29T10:00:58;100503.03;;;18.45;73.82
26112;BME280;13829;48.990;8.346;2023-04-29T10:03:32;100506.84;;;18.34;74.62
26112;BME280;13829;48.990;8.346;2023-04-29T10:06:03;100499.91;;;18.27;73.34
26112;BME280;13829;48.990;8.346;2023-04-29T10:08:32;100505.16;;;18.30;74.26
26112;BME280;13829;48.990;8.346;2023-04-29T10:11:01;100498.88;;;18.33;72.39
26112;BME280;13829;48.990;8.346;2023-04-29T10:13:30;100504.34;;;18.26;72.10
26112;BME280;13829;48.990;8.346;2023-04-29T10:16:08;100505.25;;;18.27;69.78
26112;BME280;13829;48.990;8.346;2023-04-29T10:18:40;100504.72;;;18.47;69.75
26112;BME280;13829;48.990;8.346;2023-04-29T10:21:13;100504.78;;;18.44;65.51
26112;BME280;13829;48.990;8.346;2023-04-29T10:23:42;100510.13;;;18.44;66.68
26112;BME280;13829;48.990;8.346;2023-04-29T10:26:12;100524.34;;;18.45;63.06
26112;BME280;13829;48.990;8.346;2023-04-29T10:28:43;100519.34;;;17.93;65.46
26112;BME280;13829;48.990;8.346;2023-04-29T10:31:13;100517.97;;;17.36;67.96
26112;BME280;13829;48.990;8.346;2023-04-29T10:33:44;100515.13;;;17.01;70.50
26112;BME280;13829;48.990;8.346;2023-04-29T10:36:15;100519.97;;;16.77;70.13
26112;BME280;13829;48.990;8.346;2023-04-29T10:38:47;100515.91;;;16.58;71.92
26112;BME280;13829;48.990;8.346;2023-04-29T10:41:20;100520.06;;;16.21;72.39
26112;BME280;13829;48.990;8.346;2023-04-29T10:43:50;100531.03;;;16.01;74.94
26112;BME280;13829;48.990;8.346;2023-04-29T10:46:19;100524.13;;;15.88;75.12
26112;BME280;13829;48.990;8.346;2023-04-29T10:48:48;100515.13;;;15.98;75.98
26112;BME280;13829;48.990;8.346;2023-04-29T10:51:34;100524.25;;;16.36;74.86
26112;BME280;13829;48.990;8.346;2023-04-29T10:54:06;100526.75;;;16.45;72.95
26112;BME280;13829;48.990;8.346;2023-04-29T10:56:42;100526.69;;;16.49;70.87
26112;BME280;13829;48.990;8.346;2023-04-29T10:59:12;100518.69;;;16.50;72.04
26112;BME280;13829;48.990;8.346;2023-04-29T11:01:45;100521.78;;;16.75;71.12
26112;BME280;13829;48.990;8.346;2023-04-29T11:04:13;100512.06;;;16.74;70.53
26112;BME280;13829;48.990;8.346;2023-04-29T11:06:45;100521.56;;;16.88;71.27
26112;BME280;13829;48.990;8.346;2023-04-29T11:09:18;100521.34;;;16.50;70.16
26112;BME280;13829;48.990;8.346;2023-04-29T11:11:55;100514.28;;;16.51;70.92
26112;BME280;13829;48.990;8.346;2023-04-29T11:14:25;100511.16;;;16.25;72.48
26112;BME280;13829;48.990;8.346;2023-04-29T11:16:55;100511.88;;;16.37;73.15
26112;BME280;13829;48.990;8.346;2023-04-29T11:19:25;100509.44;;;16.21;71.78
26112;BME280;13829;48.990;8.346;2023-04-29T11:22:24;100508.94;;;15.99;74.26
26112;BME280;13829;48.990;8.346;2023-04-29T11:24:55;100517.97;;;15.86;74.52
26112;BME280;13829;48.990;8.346;2023-04-29T11:27:24;100527.81;;;15.76;75.46
26112;BME280;13829;48.990;8.346;2023-04-29T11:29:54;100518.00;;;15.84;75.85
26112;BME280;13829;48.990;8.346;2023-04-29T11:32:23;100522.44;;;15.84;74.91
26112;BME280;13829;48.990;8.346;2023-04-29T11:34:51;100522.72;;;15.62;76.84
26112;BME280;13829;48.990;8.346;2023-04-29T11:37:24;100532.66;;;15.44;78.62
26112;BME280;13829;48.990;8.346;2023-04-29T11:39:58;100530.06;;;15.40;78.64
26112;BME280;13829;48.990;8.346;2023-04-29T11:42:26;100534.03;;;15.03;80.80
26112;BME280;13829;48.990;8.346;2023-04-29T11:44:54;100531.00;;;15.36;80.45
26112;BME280;13829;48.990;8.346;2023-04-29T11:47:26;100528.19;;;15.49;80.39
26112;BME280;13829;48.990;8.346;2023-04-29T11:50:03;100531.66;;;15.52;79.02
26112;BME280;13829;48.990;8.346;2023-04-29T11:52:32;100537.88;;;15.49;79.17
26112;BME280;13829;48.990;8.346;2023-04-29T11:55:01;100533.09;;;15.77;78.54
26112;BME280;13829;48.990;8.346;2023-04-29T11:57:29;100533.94;;;15.79;75.64
26112;BME280;13829;48.990;8.346;2023-04-29T11:59:57;100528.47;;;15.92;77.07
26112;BME280;13829;48.990;8.346;2023-04-29T12:02:28;100538.34;;;15.80;75.28
26112;BME280;13829;48.990;8.346;2023-04-29T12:04:56;100536.78;;;15.67;74.42
26112;BME280;13829;48.990;8.346;2023-04-29T12:07:23;100544.66;;;15.72;74.55
26112;BME280;13829;48.990;8.346;2023-04-29T12:09:51;100547.19;;;15.79;74.91
26112;BME280;13829;48.990;8.346;2023-04-29T12:12:18;100548.34;;;15.61;75.34
26112;BME280;13829;48.990;8.346;2023-04-29T12:14:46;100538.28;;;15.87;75.50
26112;BME280;13829;48.990;8.346;2023-04-29T12:17:14;100539.31;;;15.75;74.79
26112;BME280;13829;48.990;8.346;2023-04-29T12:19:42;100546.28;;;15.80;75.40
26112;BME280;13829;48.990;8.346;2023-04-29T12:22:10;100549.69;;;15.92;74.21
26112;BME280;13829;48.990;8.346;2023-04-29T12:24:39;100536.41;;;15.95;73.69
26112;BME280;13829;48.990;8.346;2023-04-29T12:27:09;100546.97;;;15.98;73.19
26112;BME280;13829;48.990;8.346;2023-04-29T12:29:37;100552.41;;;15.89;74.23
26112;BME280;13829;48.990;8.346;2023-04-29T12:32:05;100544.22;;;16.04;73.95
26112;BME280;13829;48.990;8.346;2023-04-29T12:34:33;100534.31;;;16.16;74.28
26112;BME280;13829;48.990;8.346;2023-04-29T12:37:01;100549.03;;;16.35;73.02
26112;BME280;13829;48.990;8.346;2023-04-29T12:39:30;100543.88;;;16.77;76.67
26112;BME280;13829;48.990;8.346;2023-04-29T12:41:59;100542.84;;;16.86;69.99
26112;BME280;13829;48.990;8.346;2023-04-29T12:44:34;100548.03;;;16.94;68.80
26112;BME280;13829;48.990;8.346;2023-04-29T12:47:07;100550.69;;;16.94;68.23
26112;BME280;13829;48.990;8.346;2023-04-29T12:49:35;100556.69;;;17.05;66.38
26112;BME280;13829;48.990;8.346;2023-04-29T12:52:02;100550.72;;;16.91;66.41
26112;BME280;13829;48.990;8.346;2023-04-29T12:54:29;100552.44;;;16.95;65.92